createdAt,value
2023-05-12T00:03:03.676Z,0
2023-05-12T00:08:07.716Z,0
2023-05-12T00:13:11.930Z,0
2023-05-12T00:18:16.086Z,0
2023-05-12T00:23:20.215Z,0
2023-05-12T00:28:24.363Z,0
2023-05-12T00:33:28.555Z,0
2023-05-12T00:38:32.685Z,0
2023-05-12T00:43:36.861Z,0
2023-05-12T00:48:41.009Z,0
2023-05-12T00:53:49.195Z,0
2023-05-12T00:58:49.384Z,0
2023-05-12T01:03:53.467Z,0
2023-05-12T01:08:57.632Z,0
2023-05-12T01:13:59.868Z,0
2023-05-12T01:19:04.116Z,0
2023-05-12T01:24:08.240Z,0
2023-05-12T01:29:12.386Z,0
2023-05-12T01:34:16.489Z,0
2023-05-12T01:39:20.705Z,0
2023-05-12T01:44:24.841Z,0
2023-05-12T01:49:29.033Z,0
2023-05-12T01:54:33.165Z,0
2023-05-12T01:59:37.364Z,0
2023-05-12T02:04:41.471Z,0
2023-05-12T02:09:45.653Z,0
2023-05-12T02:14:49.783Z,0
2023-05-12T02:19:53.990Z,0
2023-05-12T02:24:58.123Z,0
2023-05-12T02:30:02.302Z,0
2023-05-12T02:35:06.458Z,0
2023-05-12T02:40:10.634Z,0
2023-05-12T02:45:14.849Z,0
2023-05-12T02:50:19.274Z,0
2023-05-12T02:55:23.098Z,0
2023-05-12T03:00:27.324Z,0
2023-05-12T03:05:31.448Z,0
2023-05-12T03:10:35.623Z,0
2023-05-12T03:15:39.737Z,0
2023-05-12T03:20:43.932Z,2
2023-05-12T03:25:48.061Z,5
2023-05-12T03:30:52.181Z,10
2023-05-12T03:35:56.383Z,19
2023-05-12T03:41:00.536Z,36
2023-05-12T03:46:04.759Z,60
2023-05-12T03:51:08.889Z,94
2023-05-12T03:56:13.022Z,140
2023-05-12T04:01:17.207Z,208
2023-05-12T04:06:21.368Z,283
2023-05-12T04:11:25.543Z,430
2023-05-12T04:16:29.762Z,599
2023-05-12T04:21:33.864Z,764
2023-05-12T04:26:37.996Z,873
2023-05-12T04:31:42.165Z,960
2023-05-12T04:36:46.310Z,1015
2023-05-12T04:41:50.466Z,1045
2023-05-12T04:46:54.626Z,1379
2023-05-12T04:51:58.818Z,1889
2023-05-12T04:57:02.961Z,1805
2023-05-12T05:02:07.122Z,1687
2023-05-12T05:07:11.287Z,1815
2023-05-12T05:12:15.423Z,2246
2023-05-12T05:17:19.623Z,2911
2023-05-12T05:22:23.811Z,2950
2023-05-12T05:27:27.914Z,2870
2023-05-12T05:32:32.199Z,2753
2023-05-12T05:37:36.247Z,3196
2023-05-12T05:42:40.457Z,3405
2023-05-12T05:47:44.616Z,3356
2023-05-12T05:52:48.741Z,3463
2023-05-12T05:57:52.895Z,3798
2023-05-12T06:02:57.200Z,3932
2023-05-12T06:08:01.224Z,4360
2023-05-12T06:13:05.342Z,4756
2023-05-12T06:18:09.563Z,5339
2023-05-12T06:23:15.761Z,5687
2023-05-12T06:28:17.818Z,5008
2023-05-12T06:33:22.031Z,4322
2023-05-12T06:38:26.208Z,4197
2023-05-12T06:43:28.435Z,5173
2023-05-12T06:48:32.641Z,4252
2023-05-12T06:53:36.760Z,3595
2023-05-12T06:58:40.927Z,3582
2023-05-12T07:03:45.147Z,3895
2023-05-12T07:08:49.320Z,3103
2023-05-12T07:13:51.522Z,3443
2023-05-12T07:18:55.729Z,3789
2023-05-12T07:23:59.863Z,3573
2023-05-12T07:29:03.976Z,3694
2023-05-12T07:34:08.183Z,4555
2023-05-12T07:39:12.344Z,5181
2023-05-12T07:44:16.471Z,5484
2023-05-12T07:49:20.635Z,5782
2023-05-12T07:54:24.803Z,5839
2023-05-12T07:59:28.946Z,5937
2023-05-12T08:04:33.315Z,6210
2023-05-12T08:09:37.302Z,7780
2023-05-12T08:14:41.490Z,8004
2023-05-12T08:19:45.588Z,7745
2023-05-12T08:24:49.748Z,8872
2023-05-12T08:29:53.925Z,9771
2023-05-12T08:34:58.079Z,10249
2023-05-12T08:40:02.245Z,10235
2023-05-12T08:45:08.449Z,10264
2023-05-12T08:50:10.565Z,9700
2023-05-12T08:55:14.699Z,10789
2023-05-12T09:00:19.137Z,12155
2023-05-12T09:05:23.512Z,13013
2023-05-12T09:10:35.115Z,12366
2023-05-12T09:15:31.304Z,12927
2023-05-12T09:20:35.577Z,12581
2023-05-12T09:25:39.703Z,11906
2023-05-12T09:30:43.866Z,11761
2023-05-12T09:35:48.018Z,12558
2023-05-12T09:40:52.153Z,13473
2023-05-12T09:45:56.376Z,14171
2023-05-12T09:51:00.501Z,14128
2023-05-12T09:56:04.649Z,13732
2023-05-12T10:01:21.782Z,14541
2023-05-12T10:06:12.996Z,14604
2023-05-12T10:11:17.082Z,14743
2023-05-12T10:16:21.481Z,15191
2023-05-12T10:26:29.721Z,15082
2023-05-12T10:31:33.882Z,11816
2023-05-12T10:36:37.924Z,11304
2023-05-12T10:41:42.075Z,11389
2023-05-12T10:46:46.298Z,11380
2023-05-12T10:51:50.368Z,11660
2023-05-12T10:56:54.745Z,12504
2023-05-12T11:01:59.054Z,12981
2023-05-12T11:07:03.187Z,14845
2023-05-12T11:12:08.826Z,17011
2023-05-12T11:17:11.180Z,17458
2023-05-12T11:22:15.345Z,17802
2023-05-12T11:27:19.470Z,17603
2023-05-12T11:32:23.714Z,17959
2023-05-12T11:37:27.795Z,17914
2023-05-12T11:42:31.976Z,17496
2023-05-12T11:47:36.207Z,15379
2023-05-12T11:52:40.300Z,16681
2023-05-12T11:57:44.429Z,17702
2023-05-12T12:02:48.695Z,16774
2023-05-12T12:07:52.766Z,10790
2023-05-12T12:12:56.941Z,16846
2023-05-12T12:18:01.190Z,14903
2023-05-12T12:28:09.426Z,10865
2023-05-12T12:33:13.631Z,8659
2023-05-12T12:43:21.895Z,8569
2023-05-12T12:48:24.137Z,9826
2023-05-12T12:53:28.427Z,11466
2023-05-12T12:58:32.459Z,15125
2023-05-12T13:03:36.679Z,16291
2023-05-12T13:08:40.830Z,14644
2023-05-12T13:13:44.918Z,13006
2023-05-12T13:18:49.109Z,11601
2023-05-12T13:23:53.287Z,12937
2023-05-12T13:28:57.430Z,7543
2023-05-12T13:34:01.588Z,4496
2023-05-12T13:39:05.737Z,4400
2023-05-12T13:44:09.918Z,5140
2023-05-12T13:54:18.199Z,6238
2023-05-12T13:59:20.512Z,5022
2023-05-12T14:04:22.749Z,5368
2023-05-12T14:09:33.958Z,7210
2023-05-12T14:14:45.072Z,7433
2023-05-12T14:19:56.265Z,9330
2023-05-12T14:25:07.423Z,11016
2023-05-12T14:30:16.779Z,9962
2023-05-12T14:35:21.128Z,35093
2023-05-12T14:40:25.060Z,11120
2023-05-12T14:45:29.213Z,12691
2023-05-12T14:50:33.361Z,5795
2023-05-12T14:55:37.471Z,4494
2023-05-12T15:00:42.309Z,1754
2023-05-12T15:06:01.587Z,3031
2023-05-12T15:10:50.002Z,4447
2023-05-12T15:15:56.414Z,4513
2023-05-12T15:20:58.252Z,6090
2023-05-12T15:26:10.523Z,6883
2023-05-12T15:31:06.636Z,10018
2023-05-12T15:36:10.760Z,28914
2023-05-12T15:41:14.923Z,23212
2023-05-12T15:46:19.146Z,12319
2023-05-12T15:51:23.307Z,12608
2023-05-12T15:56:27.461Z,9804
2023-05-12T16:01:31.661Z,11111
2023-05-12T16:06:35.749Z,12076
2023-05-12T16:11:37.972Z,14264
2023-05-12T16:16:42.183Z,8158
2023-05-12T16:21:46.278Z,8389
2023-05-12T16:26:50.455Z,7898
2023-05-12T16:31:54.713Z,6833
2023-05-12T16:36:58.786Z,6264
2023-05-12T16:42:02.943Z,6058
2023-05-12T16:47:07.175Z,6511
2023-05-12T16:52:12.428Z,6950
2023-05-12T16:57:15.417Z,7958
2023-05-12T17:02:19.686Z,10673
2023-05-12T17:07:23.741Z,7951
2023-05-12T17:17:32.151Z,6919
2023-05-12T17:22:36.219Z,6166
2023-05-12T17:27:40.578Z,4259
2023-05-12T17:32:44.589Z,3010
2023-05-12T17:37:48.796Z,2997
2023-05-12T17:42:52.808Z,3621
2023-05-12T17:47:57.033Z,4056
2023-05-12T17:53:01.195Z,3718
2023-05-12T17:58:03.528Z,3472
2023-05-12T18:03:07.779Z,3125
2023-05-12T18:08:11.851Z,2535
2023-05-12T18:13:15.967Z,1971
2023-05-12T18:18:20.138Z,1813
2023-05-12T18:23:24.244Z,1958
2023-05-12T18:28:28.396Z,1672
2023-05-12T18:33:32.608Z,1323
2023-05-12T18:38:36.736Z,1083
2023-05-12T18:43:40.938Z,929
2023-05-12T18:48:45.092Z,731
2023-05-12T18:53:49.215Z,569
2023-05-12T18:58:53.400Z,402
2023-05-12T19:03:57.524Z,273
2023-05-12T19:09:01.724Z,198
2023-05-12T19:14:05.837Z,142
2023-05-12T19:19:10.251Z,99
2023-05-12T19:24:14.212Z,64
2023-05-12T19:29:18.342Z,35
2023-05-12T19:34:22.443Z,18
2023-05-12T19:39:26.707Z,8
2023-05-12T19:44:30.850Z,3
2023-05-12T19:49:35.010Z,1
2023-05-12T19:54:39.131Z,0
2023-05-12T19:59:43.309Z,0
2023-05-12T20:04:47.444Z,0
2023-05-12T20:09:51.622Z,0
2023-05-12T20:14:55.773Z,0
2023-05-12T20:19:59.968Z,0
2023-05-12T20:25:04.151Z,0
2023-05-12T20:30:08.258Z,0
2023-05-12T20:35:12.438Z,0
2023-05-12T20:40:16.584Z,0
2023-05-12T20:45:21.054Z,0
2023-05-12T20:50:24.920Z,0
2023-05-12T20:55:29.004Z,0
2023-05-12T21:00:33.259Z,0
2023-05-12T21:05:37.398Z,0
2023-05-12T21:10:41.524Z,0
2023-05-12T21:15:45.672Z,0
2023-05-12T21:20:49.864Z,0
2023-05-12T21:25:53.984Z,0
2023-05-12T21:30:58.164Z,0
2023-05-12T21:36:02.409Z,0
2023-05-12T21:41:06.500Z,0
2023-05-12T21:46:10.735Z,0
2023-05-12T21:51:14.827Z,0
2023-05-12T21:56:18.951Z,0
2023-05-12T22:01:23.214Z,0
2023-05-12T22:06:27.342Z,0
2023-05-12T22:11:31.487Z,0
2023-05-12T22:16:42.046Z,0
2023-05-12T22:21:39.773Z,0
2023-05-12T22:26:44.243Z,0
2023-05-12T22:36:52.471Z,0
2023-05-12T22:41:56.341Z,0
2023-05-12T22:47:11.671Z,0
2023-05-12T22:52:13.077Z,0
2023-05-12T22:57:08.812Z,0
2023-05-12T23:02:13.081Z,0
2023-05-12T23:07:17.109Z,0
2023-05-12T23:12:21.316Z,0
2023-05-12T23:22:29.620Z,0
2023-05-12T23:27:31.954Z,0
2023-05-12T23:32:36.183Z,0
2023-05-12T23:37:40.221Z,0
2023-05-12T23:42:44.407Z,0
2023-05-12T23:52:52.676Z,0
2023-05-12T23:57:56.863Z,0
